»·PEaware :: N235B KSBD-KEMT

N235B :: KSBD-KEMT

FLIGHT INFORMATION

Flight Status: Arrived
Operator: Privately registered:
United States
More flights under this callsign
Pilot: Jason D. (29273)
Aircraft: CESSNA 172 SKYHAWK
(C172)
More flights by this aircraft type
Origin: KSBD San Bernardino Intl
United States
Destination: KEMT El Monte
United States
More flights between these airports :: More routes between these airports
Route: DCT
File this flight plan on PilotEdge
Remarks:
Altitude:
(Current/Filed)
3,000ft
Speed:
(Current/Filed)
110kts
Departed: 09-Aug-20 08:34 AM
Arrived: 09-Aug-20 08:57 AM
Distance/Time
Traveled:
40nm/0:23
Distance/Time
To Go:
Arrived

Flight Plot

Page will automatically refresh every two minutes.


Map Options




Map Legend


Flown Route
Filed Route
Departure Airport
Arrival Airport
Navaid (VOR, NDB)
Fix

Horizontal Profiles

Position Reports

Time Latitude Longitude Heading Altitude Ground
Speed
09-Aug-20 08:16 34.102166 -117.224730 94 1146ft 0kts
09-Aug-20 08:17 34.102166 -117.224730 94 1146ft 0kts
09-Aug-20 08:18 34.102166 -117.224730 93 1146ft 0kts
09-Aug-20 08:19 34.102166 -117.224730 93 1146ft 0kts
09-Aug-20 08:20 34.102166 -117.224730 93 1146ft 0kts
09-Aug-20 08:21 34.102166 -117.224730 93 1146ft 0kts
09-Aug-20 08:22 34.102166 -117.224730 93 1146ft 0kts
09-Aug-20 08:23 34.102166 -117.224730 93 1146ft 0kts
09-Aug-20 08:24 34.102166 -117.224730 93 1146ft 0kts
09-Aug-20 08:25 34.102166 -117.224730 93 1146ft 0kts
09-Aug-20 08:26 34.102166 -117.224730 93 1146ft 0kts
09-Aug-20 08:27 34.102165 -117.224707 93 1146ft 1kts
09-Aug-20 08:28 34.100674 -117.223099 76 1149ft 4kts
09-Aug-20 08:29 34.101045 -117.219843 157 1159ft 12kts
09-Aug-20 08:30 34.100837 -117.219745 158 1159ft 0kts
09-Aug-20 08:31 34.100837 -117.219745 158 1159ft 0kts
09-Aug-20 08:32 34.099532 -117.220492 246 1156ft 8kts
09-Aug-20 08:33 34.094308 -117.240987 255 1591ft 68kts
09-Aug-20 08:34 34.094348 -117.263766 272 2154ft 69kts
09-Aug-20 08:35 34.094671 -117.287064 270 2690ft 69kts
09-Aug-20 08:36 34.094562 -117.311967 269 3017ft 91kts
09-Aug-20 08:37 34.094819 -117.345940 270 3008ft 105kts
09-Aug-20 08:38 34.094156 -117.381489 269 3008ft 106kts
09-Aug-20 08:39 34.093738 -117.417182 269 3005ft 106kts
09-Aug-20 08:40 34.093323 -117.452796 269 3002ft 106kts
09-Aug-20 08:41 34.092937 -117.488784 269 3000ft 107kts
09-Aug-20 08:42 34.092553 -117.524746 269 2997ft 107kts
09-Aug-20 08:44 34.092159 -117.560741 269 2994ft 107kts
09-Aug-20 08:45 34.091748 -117.597166 269 2977ft 117kts
09-Aug-20 08:46 34.091258 -117.639587 269 2993ft 131kts
09-Aug-20 08:47 34.090726 -117.684194 269 2994ft 133kts
09-Aug-20 08:48 34.090176 -117.728939 269 2995ft 133kts
09-Aug-20 08:49 34.089615 -117.773369 269 2997ft 132kts
09-Aug-20 08:50 34.089037 -117.817859 269 2999ft 132kts
09-Aug-20 08:51 34.088444 -117.862253 269 2999ft 132kts
09-Aug-20 08:52 34.088521 -117.907524 274 2375ft 123kts
09-Aug-20 08:53 34.088089 -117.946977 269 1635ft 114kts
09-Aug-20 08:54 34.087102 -117.984105 269 1257ft 106kts
09-Aug-20 08:55 34.100290 -118.010554 306 1199ft 79kts
09-Aug-20 08:56 34.095037 -118.029607 209 617ft 62kts
09-Aug-20 08:57 34.085333 -118.034635 143 287ft 0kts
09-Aug-20 08:58 34.085331 -118.034633 142 287ft 1kts
09-Aug-20 08:59 34.084301 -118.034377 23 287ft 0kts
09-Aug-20 08:59 34.084301 -118.034377 23 287ft 0kts
09-Aug-20 09:01 34.084301 -118.034377 23 287ft 0kts
09-Aug-20 09:02 34.084301 -118.034377 23 287ft 0kts
09-Aug-20 09:02 34.084301 -118.034377 23 287ft 0kts
09-Aug-20 09:03 34.084301 -118.034377 23 287ft 0kts
09-Aug-20 09:05 34.084301 -118.034377 23 287ft 0kts
09-Aug-20 09:05 34.084301 -118.034377 23 287ft 0kts
09-Aug-20 09:06 34.084301 -118.034377 23 287ft 0kts
09-Aug-20 09:08 34.084301 -118.034377 23 287ft 0kts
09-Aug-20 09:08 34.084301 -118.034377 23 287ft 0kts
09-Aug-20 09:09 34.084301 -118.034377 23 287ft 0kts
09-Aug-20 09:10 34.084301 -118.034377 23 287ft 0kts

Navigation Log

Ident Type
Flight plan parsing failed, navigation log unavailable